createdAt,value
2022-12-15T00:00:19.523Z,92.51
2022-12-15T00:03:05.474Z,93.22
2022-12-15T00:05:51.266Z,93.55
2022-12-15T00:08:37.161Z,92.19
2022-12-15T00:11:22.897Z,92.14
2022-12-15T00:14:08.658Z,91.55
2022-12-15T00:16:54.919Z,91.54
2022-12-15T00:19:40.587Z,93.46
2022-12-15T00:22:26.362Z,93.08
2022-12-15T00:25:12.195Z,92.28
2022-12-15T00:27:57.977Z,93.14
2022-12-15T00:30:43.779Z,92.84
2022-12-15T00:33:30.768Z,93.68
2022-12-15T00:36:19.938Z,92.59
2022-12-15T00:38:47.637Z,92.11
2022-12-15T00:41:16.757Z,93.44
2022-12-15T00:43:44.318Z,91.95
2022-12-15T00:46:30.461Z,92.34
2022-12-15T00:48:58.281Z,93.88
2022-12-15T00:51:44.533Z,94.07
2022-12-15T00:54:30.419Z,93.93
2022-12-15T00:57:16.721Z,93.64
2022-12-15T01:00:02.275Z,93.54
2022-12-15T01:02:48.339Z,93.62
2022-12-15T01:05:34.175Z,91.90
2022-12-15T01:08:19.860Z,93.10
2022-12-15T01:11:05.655Z,92.93
2022-12-15T01:13:51.281Z,93.72
2022-12-15T01:16:37.257Z,93.17
2022-12-15T01:19:23.073Z,93.88
2022-12-15T01:21:50.295Z,92.29
2022-12-15T01:24:17.603Z,92.51
2022-12-15T01:26:44.849Z,93.33
2022-12-15T01:29:12.278Z,92.99
2022-12-15T01:31:39.629Z,91.71
2022-12-15T01:34:07.251Z,91.69
2022-12-15T01:36:34.788Z,92.59
2022-12-15T01:39:02.646Z,91.51
2022-12-15T01:41:30.084Z,91.60
2022-12-15T01:44:22.170Z,90.79
2022-12-15T01:46:52.362Z,90.95
2022-12-15T01:49:25.734Z,92.25
2022-12-15T01:51:58.790Z,92.35
2022-12-15T01:54:43.016Z,91.58
2022-12-15T01:57:15.465Z,90.72
2022-12-15T01:59:50.863Z,90.63
2022-12-15T02:02:21.653Z,91.72
2022-12-15T02:04:51.272Z,91.43
2022-12-15T02:07:19.041Z,90.59
2022-12-15T02:09:48.239Z,90.78
2022-12-15T02:12:30.313Z,91.94
2022-12-15T02:15:17.799Z,91.36
2022-12-15T02:18:03.836Z,92.85
2022-12-15T02:20:50.881Z,92.50
2022-12-15T02:23:27.101Z,92.77
2022-12-15T02:26:06.074Z,92.99
2022-12-15T02:29:04.771Z,92.31
2022-12-15T02:31:50.507Z,92.07
2022-12-15T02:34:28.776Z,92.71
2022-12-15T02:36:59.914Z,92.52
2022-12-15T02:39:27.263Z,92.49
2022-12-15T02:41:54.481Z,91.62
2022-12-15T02:44:38.529Z,92.42
2022-12-15T02:47:09.928Z,92.19
2022-12-15T02:50:11.652Z,92.36
2022-12-15T02:52:51.146Z,92.60
2022-12-15T02:55:39.694Z,92.05
2022-12-15T02:58:25.378Z,92.06
2022-12-15T03:01:02.523Z,91.35
2022-12-15T03:03:32.758Z,91.96
2022-12-15T03:06:02.520Z,90.95
2022-12-15T03:08:30.048Z,92.21
2022-12-15T03:10:57.842Z,92.17
2022-12-15T03:13:25.695Z,90.88
2022-12-15T03:15:54.551Z,91.88
2022-12-15T03:18:21.812Z,91.75
2022-12-15T03:20:49.168Z,92.03
2022-12-15T03:23:16.730Z,91.66
2022-12-15T03:25:46.271Z,90.07
2022-12-15T03:28:17.025Z,91.09
2022-12-15T03:30:44.760Z,89.89
2022-12-15T03:33:12.088Z,89.41
2022-12-15T03:35:39.253Z,90.15
2022-12-15T03:38:06.863Z,90.51
2022-12-15T03:40:34.388Z,90.71
2022-12-15T03:43:01.602Z,90.14
2022-12-15T03:45:29.653Z,90.05
2022-12-15T03:47:59.182Z,89.21
2022-12-15T03:50:28.983Z,90.55
2022-12-15T03:52:59.248Z,90.12
2022-12-15T03:55:28.418Z,91.36
2022-12-15T03:57:56.402Z,89.46
2022-12-15T04:00:24.755Z,91.17
2022-12-15T04:02:52.759Z,91.51
2022-12-15T04:05:32.103Z,90.96
2022-12-15T04:08:00.819Z,89.58
2022-12-15T04:10:34.460Z,91.17
2022-12-15T04:13:07.483Z,91.56
2022-12-15T04:15:36.097Z,91.64
2022-12-15T04:18:05.425Z,91.44
2022-12-15T04:20:33.194Z,92.00
2022-12-15T04:23:00.597Z,92.10
2022-12-15T04:25:46.932Z,92.94
2022-12-15T04:28:33.199Z,91.44
2022-12-15T04:31:21.824Z,92.49
2022-12-15T04:34:10.306Z,92.91
2022-12-15T04:36:57.566Z,92.14
2022-12-15T04:39:44.044Z,93.07
2022-12-15T04:42:29.828Z,93.04
2022-12-15T04:45:22.193Z,92.37
2022-12-15T04:48:11.736Z,93.11
2022-12-15T04:50:57.726Z,93.06
2022-12-15T04:53:43.587Z,91.40
2022-12-15T04:56:35.101Z,93.05
2022-12-15T04:59:21.580Z,90.79
2022-12-15T05:02:07.687Z,90.27
2022-12-15T05:04:54.148Z,92.48
2022-12-15T05:07:40.139Z,91.28
2022-12-15T05:10:26.521Z,90.82
2022-12-15T05:13:12.146Z,91.84
2022-12-15T05:15:58.114Z,91.21
2022-12-15T05:18:44.034Z,89.86
2022-12-15T05:21:29.926Z,90.57
2022-12-15T05:24:15.757Z,90.86
2022-12-15T05:27:01.719Z,90.54
2022-12-15T05:29:47.275Z,90.38
2022-12-15T05:32:14.544Z,91.23
2022-12-15T05:34:41.871Z,91.33
2022-12-15T05:37:09.160Z,91.12
2022-12-15T05:39:36.791Z,91.72
2022-12-15T05:42:04.212Z,90.63
2022-12-15T05:44:31.461Z,91.00
2022-12-15T05:46:58.689Z,90.90
2022-12-15T05:49:26.086Z,91.13
2022-12-15T05:51:53.325Z,91.08
2022-12-15T05:54:21.328Z,91.24
2022-12-15T05:56:50.122Z,91.87
2022-12-15T05:59:19.255Z,91.64
2022-12-15T06:01:47.149Z,90.82
2022-12-15T06:04:14.532Z,89.83
2022-12-15T06:06:41.858Z,90.96
2022-12-15T06:09:09.606Z,89.91
2022-12-15T06:11:37.778Z,90.97
2022-12-15T06:14:05.242Z,90.50
2022-12-15T06:16:33.088Z,90.91
2022-12-15T06:19:01.787Z,91.19
2022-12-15T06:21:31.985Z,90.88
2022-12-15T06:24:01.666Z,90.81
2022-12-15T06:26:52.123Z,91.28
2022-12-15T06:29:19.490Z,91.73
2022-12-15T06:31:46.857Z,91.56
2022-12-15T06:34:15.517Z,91.96
2022-12-15T06:36:42.761Z,92.11
2022-12-15T06:39:12.992Z,92.00
2022-12-15T06:41:41.164Z,91.44
2022-12-15T06:44:10.787Z,91.79
2022-12-15T06:46:38.059Z,91.23
2022-12-15T06:49:05.528Z,92.10
2022-12-15T06:51:32.761Z,92.17
2022-12-15T06:54:00.093Z,92.39
2022-12-15T06:56:34.401Z,92.46
2022-12-15T06:59:03.666Z,91.77
2022-12-15T07:01:31.348Z,91.89
2022-12-15T07:04:03.013Z,92.61
2022-12-15T07:06:37.723Z,91.81
2022-12-15T07:09:07.486Z,92.65
2022-12-15T07:11:35.143Z,92.86
2022-12-15T07:14:02.358Z,92.07
2022-12-15T07:16:30.132Z,92.22
2022-12-15T07:18:57.472Z,92.30
2022-12-15T07:21:27.735Z,92.06
2022-12-15T07:23:56.797Z,92.13
2022-12-15T07:26:24.861Z,93.12
2022-12-15T07:28:53.835Z,92.74
2022-12-15T07:31:22.001Z,91.84
2022-12-15T07:33:49.546Z,92.00
2022-12-15T07:36:16.776Z,91.30
2022-12-15T07:38:51.260Z,91.48
2022-12-15T07:41:19.909Z,92.45
2022-12-15T07:43:47.797Z,91.24
2022-12-15T07:46:15.496Z,91.55
2022-12-15T07:48:42.997Z,91.40
2022-12-15T07:51:18.849Z,91.27
2022-12-15T07:53:47.220Z,91.95
2022-12-15T07:56:15.309Z,91.70
2022-12-15T07:58:42.671Z,93.05
2022-12-15T08:01:12.506Z,91.92
2022-12-15T08:03:40.928Z,92.21
2022-12-15T08:06:11.135Z,91.91
2022-12-15T08:08:38.835Z,92.04
2022-12-15T08:11:11.443Z,93.85
2022-12-15T08:16:26.819Z,92.31
2022-12-15T08:18:54.545Z,92.64
2022-12-15T08:21:21.768Z,92.89
2022-12-15T08:23:49.579Z,92.36
2022-12-15T08:26:18.017Z,92.18
2022-12-15T08:28:45.814Z,94.15
2022-12-15T08:31:19.939Z,94.20
2022-12-15T08:33:47.879Z,93.50
2022-12-15T08:36:17.893Z,92.44
2022-12-15T08:38:46.404Z,94.40
2022-12-15T08:41:19.650Z,93.42
2022-12-15T08:43:49.223Z,93.11
2022-12-15T08:46:18.208Z,93.19
2022-12-15T08:48:45.598Z,93.48
2022-12-15T08:51:13.207Z,92.97
2022-12-15T08:53:40.408Z,93.89
2022-12-15T08:56:09.513Z,93.88
2022-12-15T08:58:36.962Z,93.80
2022-12-15T09:01:17.442Z,92.41
2022-12-15T09:03:48.099Z,92.95
2022-12-15T09:06:18.055Z,93.09
2022-12-15T09:08:48.490Z,93.32
2022-12-15T09:11:17.965Z,92.34
2022-12-15T09:13:45.221Z,92.63
2022-12-15T09:16:15.337Z,93.58
2022-12-15T09:18:44.543Z,92.74
2022-12-15T09:21:11.688Z,92.82
2022-12-15T09:23:39.240Z,92.65
2022-12-15T09:26:10.664Z,93.01
2022-12-15T09:28:38.325Z,92.53
2022-12-15T09:31:06.319Z,92.21
2022-12-15T09:33:33.998Z,92.27
2022-12-15T09:36:01.565Z,91.92
2022-12-15T09:38:28.772Z,92.24
2022-12-15T09:40:56.114Z,91.84
2022-12-15T09:43:46.109Z,92.47
2022-12-15T09:46:21.210Z,91.35
2022-12-15T09:48:48.380Z,91.78
2022-12-15T09:51:16.723Z,91.71
2022-12-15T09:53:59.552Z,89.94
2022-12-15T09:56:31.429Z,90.47
2022-12-15T09:59:04.076Z,88.90
2022-12-15T10:01:38.901Z,89.54
2022-12-15T10:04:25.029Z,89.92
2022-12-15T10:06:55.177Z,89.10
2022-12-15T10:09:29.156Z,89.42
2022-12-15T10:11:59.226Z,90.60
2022-12-15T10:14:31.735Z,89.51
2022-12-15T10:17:06.900Z,89.32
2022-12-15T10:19:37.323Z,89.48
2022-12-15T10:22:04.429Z,91.38
2022-12-15T10:27:38.586Z,89.47
2022-12-15T10:30:07.966Z,89.91
2022-12-15T10:32:50.974Z,89.28
2022-12-15T10:35:23.832Z,89.88
2022-12-15T10:37:51.007Z,90.49
2022-12-15T10:40:18.923Z,90.03
2022-12-15T10:42:49.752Z,90.23
2022-12-15T10:45:30.474Z,89.06
2022-12-15T10:47:59.080Z,90.20
2022-12-15T10:50:27.563Z,90.99
2022-12-15T10:52:54.914Z,91.35
2022-12-15T10:55:33.098Z,91.79
2022-12-15T10:58:01.145Z,91.96
2022-12-15T11:00:29.532Z,91.23
2022-12-15T11:02:57.608Z,91.25
2022-12-15T11:05:25.374Z,92.19
2022-12-15T11:07:53.236Z,92.23
2022-12-15T11:10:20.341Z,91.69
2022-12-15T11:13:01.961Z,91.45
2022-12-15T11:15:38.141Z,90.59
2022-12-15T11:18:13.317Z,91.00
2022-12-15T11:20:41.871Z,91.30
2022-12-15T11:23:13.834Z,90.81
2022-12-15T11:25:45.454Z,91.98
2022-12-15T11:28:16.842Z,91.44
2022-12-15T11:30:45.762Z,91.56
2022-12-15T11:33:13.353Z,92.46
2022-12-15T11:35:46.566Z,91.02
2022-12-15T11:38:20.728Z,91.33
2022-12-15T11:40:47.894Z,91.88
2022-12-15T11:43:20.921Z,91.87
2022-12-15T11:45:48.322Z,92.45
2022-12-15T11:48:25.747Z,91.45
2022-12-15T11:50:57.178Z,90.79
2022-12-15T11:53:36.833Z,90.19
2022-12-15T11:56:06.371Z,90.51
2022-12-15T11:58:40.571Z,90.75
2022-12-15T12:01:11.733Z,91.26
2022-12-15T12:03:41.959Z,91.38
2022-12-15T12:06:13.535Z,91.12
2022-12-15T12:08:44.051Z,91.38
2022-12-15T12:11:15.422Z,91.61
2022-12-15T12:13:50.788Z,92.06
2022-12-15T12:16:17.893Z,92.44
2022-12-15T12:19:05.664Z,93.05
2022-12-15T12:21:35.859Z,92.56
2022-12-15T12:24:04.150Z,93.91
2022-12-15T12:26:40.664Z,93.85
2022-12-15T12:29:16.105Z,94.46
2022-12-15T12:32:04.162Z,94.04
2022-12-15T12:34:36.111Z,94.64
2022-12-15T12:37:13.928Z,94.74
2022-12-15T12:39:41.314Z,94.74
2022-12-15T12:42:14.413Z,95.10
2022-12-15T12:44:41.602Z,94.29
2022-12-15T12:47:08.830Z,95.24
2022-12-15T12:49:45.424Z,94.87
2022-12-15T12:52:22.691Z,94.46
2022-12-15T12:54:52.779Z,94.40
2022-12-15T12:57:20.116Z,95.10
2022-12-15T12:59:57.215Z,95.06
2022-12-15T13:02:26.124Z,94.73
2022-12-15T13:05:05.136Z,94.78
2022-12-15T13:07:34.809Z,95.57
2022-12-15T13:10:13.626Z,95.38
2022-12-15T13:12:51.598Z,95.23
2022-12-15T13:15:25.451Z,95.63
2022-12-15T13:17:54.541Z,95.25
2022-12-15T13:20:21.739Z,95.00
2022-12-15T13:22:49.008Z,95.00
2022-12-15T13:25:33.828Z,94.61
2022-12-15T13:28:01.719Z,94.45
2022-12-15T13:30:29.327Z,94.41
2022-12-15T13:33:13.830Z,94.77
2022-12-15T13:35:40.967Z,94.58
2022-12-15T13:38:09.896Z,95.56
2022-12-15T13:40:37.283Z,95.22
2022-12-15T13:43:04.356Z,95.53
2022-12-15T13:45:34.312Z,95.49
2022-12-15T13:48:01.630Z,95.57
2022-12-15T13:50:33.535Z,95.92
2022-12-15T13:55:52.826Z,95.54
2022-12-15T13:58:20.044Z,95.97
2022-12-15T14:00:58.011Z,95.99
2022-12-15T14:03:26.450Z,95.90
2022-12-15T14:05:54.482Z,95.87
2022-12-15T14:08:22.111Z,96.11
2022-12-15T14:10:51.229Z,95.66
2022-12-15T14:13:19.414Z,96.06
2022-12-15T14:15:50.943Z,96.08
2022-12-15T14:18:44.666Z,96.38
2022-12-15T14:21:23.087Z,95.78
2022-12-15T14:26:40.186Z,95.71
2022-12-15T14:29:07.467Z,95.68
2022-12-15T14:31:35.531Z,96.50
2022-12-15T14:34:03.912Z,96.46
2022-12-15T14:36:31.217Z,97.06
2022-12-15T14:39:05.531Z,97.16
2022-12-15T14:41:36.829Z,97.14
2022-12-15T14:44:31.781Z,97.52
2022-12-15T14:46:52.487Z,97.20
2022-12-15T14:49:23.120Z,98.07
2022-12-15T14:51:51.772Z,98.30
2022-12-15T14:54:28.173Z,98.75
2022-12-15T14:57:02.276Z,98.46
2022-12-15T14:59:33.929Z,98.25
2022-12-15T15:02:17.574Z,99.10
2022-12-15T15:04:56.947Z,98.67
2022-12-15T15:07:24.661Z,99.09
2022-12-15T15:09:51.938Z,99.42
2022-12-15T15:12:21.784Z,99.21
2022-12-15T15:14:50.192Z,99.55
2022-12-15T15:17:24.797Z,99.64
2022-12-15T15:19:53.566Z,98.87
2022-12-15T15:22:36.019Z,99.29
2022-12-15T15:25:18.987Z,98.68
2022-12-15T15:27:46.253Z,98.91
2022-12-15T15:30:18.123Z,99.66
2022-12-15T15:32:52.607Z,99.12
2022-12-15T15:35:20.298Z,99.96
2022-12-15T15:37:47.588Z,99.39
2022-12-15T15:40:16.382Z,100.00
2022-12-15T15:42:55.616Z,99.87
2022-12-15T15:45:24.103Z,100.00
2022-12-15T15:47:58.561Z,99.33
2022-12-15T15:50:37.211Z,99.24
2022-12-15T15:53:05.527Z,99.55
2022-12-15T15:55:39.969Z,98.52
2022-12-15T15:58:10.920Z,99.34
2022-12-15T16:00:38.107Z,99.06
2022-12-15T16:03:05.583Z,99.32
2022-12-15T16:05:32.976Z,98.49
2022-12-15T16:08:00.371Z,99.48
2022-12-15T16:10:28.323Z,99.41
2022-12-15T16:12:55.942Z,99.43
2022-12-15T16:15:25.923Z,99.59
2022-12-15T16:17:53.241Z,99.11
2022-12-15T16:20:21.453Z,99.06
2022-12-15T16:22:51.218Z,99.74
2022-12-15T16:25:21.838Z,99.26
2022-12-15T16:27:49.738Z,99.85
2022-12-15T16:30:18.196Z,98.74
2022-12-15T16:32:45.553Z,99.08
2022-12-15T16:35:12.873Z,98.83
2022-12-15T16:37:46.455Z,100.00
2022-12-15T16:40:21.558Z,99.84
2022-12-15T16:42:52.375Z,99.32
2022-12-15T16:45:19.957Z,100.00
2022-12-15T16:47:47.442Z,100.00
2022-12-15T16:50:17.811Z,100.00
2022-12-15T16:52:49.317Z,99.07
2022-12-15T16:55:23.622Z,100.00
2022-12-15T16:57:51.586Z,100.00
2022-12-15T17:00:20.382Z,100.00
2022-12-15T17:02:50.235Z,98.75
2022-12-15T17:05:17.782Z,100.00
2022-12-15T17:07:52.235Z,99.76
2022-12-15T17:10:21.300Z,99.98
2022-12-15T17:12:49.141Z,99.04
2022-12-15T17:15:23.802Z,100.00
2022-12-15T17:17:51.319Z,100.00
2022-12-15T17:20:28.934Z,100.00
2022-12-15T17:22:58.621Z,99.78
2022-12-15T17:25:46.083Z,98.83
2022-12-15T17:28:15.474Z,98.80
2022-12-15T17:30:42.908Z,100.00
2022-12-15T17:33:20.377Z,100.00
2022-12-15T17:35:47.855Z,100.00
2022-12-15T17:38:15.717Z,99.32
2022-12-15T17:40:43.645Z,99.92
2022-12-15T17:43:15.441Z,99.08
2022-12-15T17:45:42.616Z,98.99
2022-12-15T17:48:10.061Z,100.00
2022-12-15T17:50:37.557Z,98.74
2022-12-15T17:53:05.616Z,100.00
2022-12-15T17:55:35.396Z,98.51
2022-12-15T17:58:06.131Z,98.24
2022-12-15T18:00:33.403Z,98.88
2022-12-15T18:03:01.085Z,99.55
2022-12-15T18:05:30.079Z,99.86
2022-12-15T18:07:58.076Z,99.45
2022-12-15T18:10:45.637Z,99.46
2022-12-15T18:13:18.058Z,98.28
2022-12-15T18:15:46.571Z,98.39
2022-12-15T18:18:14.493Z,100.00
2022-12-15T18:20:43.355Z,99.96
2022-12-15T18:23:14.326Z,100.00
2022-12-15T18:25:41.910Z,99.03
2022-12-15T18:28:24.636Z,100.00
2022-12-15T18:30:52.888Z,99.62
2022-12-15T18:33:22.068Z,99.90
2022-12-15T18:35:50.013Z,99.89
2022-12-15T18:38:22.508Z,100.00
2022-12-15T18:40:59.782Z,100.00
2022-12-15T18:43:31.528Z,100.00
2022-12-15T18:45:59.250Z,100.00
2022-12-15T18:48:26.679Z,100.00
2022-12-15T18:50:54.820Z,100.00
2022-12-15T18:53:33.571Z,100.00
2022-12-15T18:56:06.388Z,100.00
2022-12-15T18:58:34.547Z,100.00
2022-12-15T19:01:02.208Z,100.00
2022-12-15T19:03:30.126Z,100.00
2022-12-15T19:05:59.028Z,99.61
2022-12-15T19:08:26.283Z,99.78
2022-12-15T19:10:56.883Z,98.96
2022-12-15T19:13:31.930Z,99.81
2022-12-15T19:16:00.317Z,100.00
2022-12-15T19:18:46.440Z,99.12
2022-12-15T19:21:38.441Z,98.39
2022-12-15T19:24:16.067Z,99.59
2022-12-15T19:26:43.669Z,99.74
2022-12-15T19:29:16.194Z,99.18
2022-12-15T19:31:45.870Z,99.49
2022-12-15T19:34:16.733Z,98.73
2022-12-15T19:36:44.136Z,99.85
2022-12-15T19:39:16.825Z,98.51
2022-12-15T19:41:44.186Z,99.61
2022-12-15T19:44:14.728Z,98.65
2022-12-15T19:46:42.523Z,99.36
2022-12-15T19:49:10.370Z,99.83
2022-12-15T19:51:37.554Z,99.04
2022-12-15T19:54:05.196Z,99.55
2022-12-15T19:56:32.415Z,98.68
2022-12-15T19:58:59.808Z,98.30
2022-12-15T20:01:27.295Z,99.84
2022-12-15T20:03:54.717Z,98.74
2022-12-15T20:06:26.120Z,99.66
2022-12-15T20:08:55.758Z,98.93
2022-12-15T20:11:24.563Z,99.31
2022-12-15T20:13:51.692Z,99.06
2022-12-15T20:16:19.335Z,99.62
2022-12-15T20:18:46.678Z,98.75
2022-12-15T20:21:17.907Z,98.76
2022-12-15T20:23:55.044Z,99.31
2022-12-15T20:26:24.291Z,99.70
2022-12-15T20:28:51.935Z,98.68
2022-12-15T20:31:19.889Z,99.54
2022-12-15T20:33:47.389Z,98.46
2022-12-15T20:36:16.050Z,99.25
2022-12-15T20:38:43.500Z,98.08
2022-12-15T20:41:21.257Z,98.10
2022-12-15T20:43:48.792Z,98.49
2022-12-15T20:46:16.748Z,97.28
2022-12-15T20:48:44.605Z,97.38
2022-12-15T20:51:13.725Z,97.06
2022-12-15T20:53:40.889Z,97.48
2022-12-15T20:56:08.275Z,97.03
2022-12-15T20:58:41.532Z,97.42
2022-12-15T21:01:26.174Z,98.01
2022-12-15T21:03:54.190Z,97.84
2022-12-15T21:06:21.625Z,98.45
2022-12-15T21:08:49.455Z,97.45
2022-12-15T21:11:18.514Z,98.13
2022-12-15T21:13:45.887Z,97.44
2022-12-15T21:16:17.452Z,97.42
2022-12-15T21:21:37.519Z,97.69
2022-12-15T21:24:07.939Z,97.07
2022-12-15T21:26:35.124Z,97.72
2022-12-15T21:29:02.786Z,97.49
2022-12-15T21:31:29.998Z,97.50
2022-12-15T21:33:57.204Z,96.94
2022-12-15T21:36:24.339Z,96.95
2022-12-15T21:38:55.034Z,97.13
2022-12-15T21:41:22.453Z,96.86
2022-12-15T21:43:52.442Z,96.20
2022-12-15T21:46:28.418Z,96.32
2022-12-15T21:49:14.290Z,96.27
2022-12-15T21:51:41.901Z,96.01
2022-12-15T21:54:19.465Z,95.83
2022-12-15T21:56:47.639Z,95.54
2022-12-15T21:59:15.990Z,95.55
2022-12-15T22:01:43.229Z,95.32
2022-12-15T22:04:27.913Z,95.79
2022-12-15T22:06:55.025Z,95.71
2022-12-15T22:09:22.488Z,95.62
2022-12-15T22:11:50.322Z,95.79
2022-12-15T22:14:26.753Z,96.00
2022-12-15T22:16:54.039Z,95.62
2022-12-15T22:19:22.381Z,95.95
2022-12-15T22:21:49.747Z,95.66
2022-12-15T22:24:16.912Z,95.40
2022-12-15T22:26:44.064Z,95.53
2022-12-15T22:29:17.948Z,95.28
2022-12-15T22:31:45.073Z,95.52
2022-12-15T22:34:12.948Z,95.84
2022-12-15T22:36:40.224Z,96.01
2022-12-15T22:39:10.919Z,96.31
2022-12-15T22:41:39.923Z,96.61
2022-12-15T22:44:11.801Z,96.56
2022-12-15T22:46:38.974Z,96.61
2022-12-15T22:49:08.320Z,95.89
2022-12-15T22:51:35.480Z,95.82
2022-12-15T22:54:02.592Z,95.88
2022-12-15T22:56:31.589Z,95.53
2022-12-15T22:58:59.810Z,95.12
2022-12-15T23:01:26.973Z,95.93
2022-12-15T23:03:54.129Z,95.23
2022-12-15T23:06:23.515Z,95.53
2022-12-15T23:08:55.784Z,95.31
2022-12-15T23:11:38.613Z,95.08
2022-12-15T23:14:10.716Z,95.13
2022-12-15T23:16:38.111Z,95.61
2022-12-15T23:19:08.264Z,95.22
2022-12-15T23:21:36.936Z,94.90
2022-12-15T23:24:04.496Z,95.18
2022-12-15T23:26:31.862Z,94.49
2022-12-15T23:28:59.276Z,94.88
2022-12-15T23:31:26.485Z,94.22
2022-12-15T23:33:54.491Z,94.80
2022-12-15T23:36:22.273Z,94.62
2022-12-15T23:38:50.087Z,94.57
2022-12-15T23:41:19.443Z,93.91
2022-12-15T23:43:46.613Z,94.05
2022-12-15T23:46:13.810Z,94.37
2022-12-15T23:48:41.574Z,95.55
2022-12-15T23:51:18.365Z,94.52
2022-12-15T23:53:45.919Z,95.32
2022-12-15T23:56:13.892Z,95.04
2022-12-15T23:58:41.605Z,95.86
